Olive, New York
Current Conditions -  °F | °C
As of 9:53 PM on Saturday 24 Jan 2015 (Local Time) from KPOU Reporting Station
Overcast Overcast  
Wind Chill: 25°   Ceiling: 7000
Heat Index: 31°   Visibility: 8mi
Dew Point: 27°   Wind: 6mph
Humidity: 85%   Direction: 270°W
Pressure: 29.42"   Gusts: NA
Location:  41.8936°N, 74.2453°W
Report Text: KPOU 250253Z 27005KT 8SM OVC070 M01/M03 A2942 RMK AO2 SLP960 I3001 T10061028 53020
Loading
Personal Weather Stations






























Interactive Weather Map New forecast layout! Learn more

10-Day Weather Forecast

Advertisements
Track Severe Weather on mobile